sensor_id;sensor_type;location;lat;lon;timestamp;temperature;humidity
52787;DHT22;38661;53.152;5.846;2023-03-01T00:01:24;1.20;87.50
52787;DHT22;38661;53.152;5.846;2023-03-01T00:03:50;1.10;87.60
52787;DHT22;38661;53.152;5.846;2023-03-01T00:06:16;1.10;87.80
52787;DHT22;38661;53.152;5.846;2023-03-01T00:08:42;1.10;87.90
52787;DHT22;38661;53.152;5.846;2023-03-01T00:11:16;1.10;88.00
52787;DHT22;38661;53.152;5.846;2023-03-01T00:13:46;1.10;88.00
52787;DHT22;38661;53.152;5.846;2023-03-01T00:16:17;1.10;88.10
52787;DHT22;38661;53.152;5.846;2023-03-01T00:18:43;1.10;88.00
52787;DHT22;38661;53.152;5.846;2023-03-01T00:21:09;1.00;87.90
52787;DHT22;38661;53.152;5.846;2023-03-01T00:23:35;0.80;88.00
52787;DHT22;38661;53.152;5.846;2023-03-01T00:26:02;0.80;88.10
52787;DHT22;38661;53.152;5.846;2023-03-01T00:28:27;0.70;88.10
52787;DHT22;38661;53.152;5.846;2023-03-01T00:30:53;0.70;87.80
52787;DHT22;38661;53.152;5.846;2023-03-01T00:33:19;0.60;88.10
52787;DHT22;38661;53.152;5.846;2023-03-01T00:35:44;0.50;88.60
52787;DHT22;38661;53.152;5.846;2023-03-01T00:38:10;0.40;88.80
52787;DHT22;38661;53.152;5.846;2023-03-01T00:40:36;0.30;89.10
52787;DHT22;38661;53.152;5.846;2023-03-01T00:43:03;0.30;88.60
52787;DHT22;38661;53.152;5.846;2023-03-01T00:45:29;0.20;88.20
52787;DHT22;38661;53.152;5.846;2023-03-01T00:47:56;0.10;88.10
52787;DHT22;38661;53.152;5.846;2023-03-01T00:50:23;0.00;88.40
52787;DHT22;38661;53.152;5.846;2023-03-01T00:52:55;0.00;88.90
52787;DHT22;38661;53.152;5.846;2023-03-01T00:55:22;0.00;89.40
52787;DHT22;38661;53.152;5.846;2023-03-01T00:57:47;0.00;89.50
52787;DHT22;38661;53.152;5.846;2023-03-01T01:00:13;0.00;89.40
52787;DHT22;38661;53.152;5.846;2023-03-01T01:02:40;0.00;89.60
52787;DHT22;38661;53.152;5.846;2023-03-01T01:05:06;0.00;89.80
52787;DHT22;38661;53.152;5.846;2023-03-01T01:07:32;0.00;90.10
52787;DHT22;38661;53.152;5.846;2023-03-01T01:09:57;0.00;90.30
52787;DHT22;38661;53.152;5.846;2023-03-01T01:12:23;0.00;90.40
52787;DHT22;38661;53.152;5.846;2023-03-01T01:14:49;0.00;89.40
52787;DHT22;38661;53.152;5.846;2023-03-01T01:17:14;0.00;89.00
52787;DHT22;38661;53.152;5.846;2023-03-01T01:19:40;0.00;89.60
52787;DHT22;38661;53.152;5.846;2023-03-01T01:22:06;0.00;89.80
52787;DHT22;38661;53.152;5.846;2023-03-01T01:24:32;0.00;90.10
52787;DHT22;38661;53.152;5.846;2023-03-01T01:26:57;0.00;89.60
52787;DHT22;38661;53.152;5.846;2023-03-01T01:29:23;0.00;89.60
52787;DHT22;38661;53.152;5.846;2023-03-01T01:31:49;-3276.70;89.50
52787;DHT22;38661;53.152;5.846;2023-03-01T01:34:17;-3276.70;89.40
52787;DHT22;38661;53.152;5.846;2023-03-01T01:36:44;-3276.60;89.40
52787;DHT22;38661;53.152;5.846;2023-03-01T01:39:12;-3276.60;89.70
52787;DHT22;38661;53.152;5.846;2023-03-01T01:41:40;-3276.60;89.80
52787;DHT22;38661;53.152;5.846;2023-03-01T01:44:23;-3276.50;89.40
52787;DHT22;38661;53.152;5.846;2023-03-01T01:47:00;-3276.50;89.20
52787;DHT22;38661;53.152;5.846;2023-03-01T01:54:41;-3276.30;89.20
52787;DHT22;38661;53.152;5.846;2023-03-01T01:57:11;-3276.30;89.50
52787;DHT22;38661;53.152;5.846;2023-03-01T01:59:39;-3276.20;89.20
52787;DHT22;38661;53.152;5.846;2023-03-01T02:02:06;-3276.20;89.40
52787;DHT22;38661;53.152;5.846;2023-03-01T02:04:32;-3276.10;89.40
52787;DHT22;38661;53.152;5.846;2023-03-01T02:07:02;-3276.10;89.60
52787;DHT22;38661;53.152;5.846;2023-03-01T02:09:30;-3276.20;89.90
52787;DHT22;38661;53.152;5.846;2023-03-01T02:11:56;-3276.20;89.90
52787;DHT22;38661;53.152;5.846;2023-03-01T02:14:22;-3276.20;90.00
52787;DHT22;38661;53.152;5.846;2023-03-01T02:16:48;-3276.30;90.10
52787;DHT22;38661;53.152;5.846;2023-03-01T02:22:18;-3276.30;90.40
52787;DHT22;38661;53.152;5.846;2023-03-01T02:25:49;-3276.30;91.00
52787;DHT22;38661;53.152;5.846;2023-03-01T02:30:39;-3276.40;91.60
52787;DHT22;38661;53.152;5.846;2023-03-01T02:33:26;-3276.40;91.70
52787;DHT22;38661;53.152;5.846;2023-03-01T02:35:53;-3276.40;91.90
52787;DHT22;38661;53.152;5.846;2023-03-01T02:38:20;-3276.40;92.10
52787;DHT22;38661;53.152;5.846;2023-03-01T02:40:48;-3276.50;92.00
52787;DHT22;38661;53.152;5.846;2023-03-01T02:43:14;-3276.40;91.90
52787;DHT22;38661;53.152;5.846;2023-03-01T02:45:51;-3276.40;92.10
52787;DHT22;38661;53.152;5.846;2023-03-01T02:48:19;-3276.40;92.10
52787;DHT22;38661;53.152;5.846;2023-03-01T02:51:31;-3276.40;92.30
52787;DHT22;38661;53.152;5.846;2023-03-01T02:54:26;-3276.40;92.00
52787;DHT22;38661;53.152;5.846;2023-03-01T02:56:53;-3276.40;92.40
52787;DHT22;38661;53.152;5.846;2023-03-01T02:59:26;-3276.40;92.70
52787;DHT22;38661;53.152;5.846;2023-03-01T03:01:54;-3276.30;92.40
52787;DHT22;38661;53.152;5.846;2023-03-01T03:04:20;-3276.30;92.60
52787;DHT22;38661;53.152;5.846;2023-03-01T03:06:47;-3276.30;92.40
52787;DHT22;38661;53.152;5.846;2023-03-01T03:09:15;-3276.30;92.20
52787;DHT22;38661;53.152;5.846;2023-03-01T03:11:42;-3276.30;92.40
52787;DHT22;38661;53.152;5.846;2023-03-01T03:14:12;-3276.30;92.50
52787;DHT22;38661;53.152;5.846;2023-03-01T03:16:47;-3276.40;92.70
52787;DHT22;38661;53.152;5.846;2023-03-01T03:19:13;-3276.40;92.70
52787;DHT22;38661;53.152;5.846;2023-03-01T03:21:39;-3276.40;92.60
52787;DHT22;38661;53.152;5.846;2023-03-01T03:24:05;-3276.30;92.50
52787;DHT22;38661;53.152;5.846;2023-03-01T03:26:31;-3276.30;92.70
52787;DHT22;38661;53.152;5.846;2023-03-01T03:28:57;-3276.30;92.60
52787;DHT22;38661;53.152;5.846;2023-03-01T03:31:23;-3276.20;92.40
52787;DHT22;38661;53.152;5.846;2023-03-01T03:33:49;-3276.20;92.60
52787;DHT22;38661;53.152;5.846;2023-03-01T03:36:16;-3276.20;92.70
52787;DHT22;38661;53.152;5.846;2023-03-01T03:38:44;-3276.20;92.50
52787;DHT22;38661;53.152;5.846;2023-03-01T03:41:11;-3276.10;92.50
52787;DHT22;38661;53.152;5.846;2023-03-01T03:43:39;-3276.00;92.30
52787;DHT22;38661;53.152;5.846;2023-03-01T03:46:06;-3276.00;92.50
52787;DHT22;38661;53.152;5.846;2023-03-01T03:48:40;-3276.00;92.40
52787;DHT22;38661;53.152;5.846;2023-03-01T03:51:06;-3276.00;92.20
52787;DHT22;38661;53.152;5.846;2023-03-01T03:53:35;-3275.90;91.90
52787;DHT22;38661;53.152;5.846;2023-03-01T03:56:00;-3275.80;92.10
52787;DHT22;38661;53.152;5.846;2023-03-01T03:58:26;-3275.80;92.10
52787;DHT22;38661;53.152;5.846;2023-03-01T04:00:54;-3275.70;92.10
52787;DHT22;38661;53.152;5.846;2023-03-01T04:03:22;-3275.70;92.00
52787;DHT22;38661;53.152;5.846;2023-03-01T04:05:49;-3275.70;92.10
52787;DHT22;38661;53.152;5.846;2023-03-01T04:08:17;-3275.70;92.10
52787;DHT22;38661;53.152;5.846;2023-03-01T04:10:47;-3275.70;92.10
52787;DHT22;38661;53.152;5.846;2023-03-01T04:13:15;-3275.60;92.00
52787;DHT22;38661;53.152;5.846;2023-03-01T04:15:41;-3275.50;91.90
52787;DHT22;38661;53.152;5.846;2023-03-01T04:18:14;-3275.50;91.80
52787;DHT22;38661;53.152;5.846;2023-03-01T04:20:41;-3275.50;91.80
52787;DHT22;38661;53.152;5.846;2023-03-01T04:25:46;-3275.40;91.60
52787;DHT22;38661;53.152;5.846;2023-03-01T04:28:15;-3275.40;91.40
52787;DHT22;38661;53.152;5.846;2023-03-01T04:30:41;-3275.40;91.60
52787;DHT22;38661;53.152;5.846;2023-03-01T04:33:08;-3275.40;91.80
52787;DHT22;38661;53.152;5.846;2023-03-01T04:35:36;-3275.40;91.80
52787;DHT22;38661;53.152;5.846;2023-03-01T04:38:02;-3275.50;92.00
52787;DHT22;38661;53.152;5.846;2023-03-01T04:40:28;-3275.50;92.00
52787;DHT22;38661;53.152;5.846;2023-03-01T04:42:54;-3275.50;92.00
52787;DHT22;38661;53.152;5.846;2023-03-01T04:45:19;-3275.50;92.00
52787;DHT22;38661;53.152;5.846;2023-03-01T04:47:46;-3275.50;92.30
52787;DHT22;38661;53.152;5.846;2023-03-01T04:50:14;-3275.50;92.20
52787;DHT22;38661;53.152;5.846;2023-03-01T04:52:40;-3275.40;92.00
52787;DHT22;38661;53.152;5.846;2023-03-01T04:55:06;-3275.40;92.10
52787;DHT22;38661;53.152;5.846;2023-03-01T04:57:32;-3275.40;91.90
52787;DHT22;38661;53.152;5.846;2023-03-01T04:59:58;-3275.30;91.90
52787;DHT22;38661;53.152;5.846;2023-03-01T05:02:24;-3275.30;91.90
52787;DHT22;38661;53.152;5.846;2023-03-01T05:04:49;-3275.30;91.90
52787;DHT22;38661;53.152;5.846;2023-03-01T05:07:15;-3275.30;91.90
52787;DHT22;38661;53.152;5.846;2023-03-01T05:09:48;-3275.30;91.80
52787;DHT22;38661;53.152;5.846;2023-03-01T05:12:14;-3275.30;91.80
52787;DHT22;38661;53.152;5.846;2023-03-01T05:14:41;-3275.30;91.90
52787;DHT22;38661;53.152;5.846;2023-03-01T05:17:07;-3275.20;91.80
52787;DHT22;38661;53.152;5.846;2023-03-01T05:19:33;-3275.20;91.70
52787;DHT22;38661;53.152;5.846;2023-03-01T05:21:59;-3275.10;91.50
52787;DHT22;38661;53.152;5.846;2023-03-01T05:24:30;-3275.10;91.60
52787;DHT22;38661;53.152;5.846;2023-03-01T05:26:56;-3275.10;91.60
52787;DHT22;38661;53.152;5.846;2023-03-01T05:29:23;-3275.00;91.50
52787;DHT22;38661;53.152;5.846;2023-03-01T05:31:53;-3275.10;91.50
52787;DHT22;38661;53.152;5.846;2023-03-01T05:34:28;-3275.00;91.20
52787;DHT22;38661;53.152;5.846;2023-03-01T05:36:55;-3275.00;91.20
52787;DHT22;38661;53.152;5.846;2023-03-01T05:39:22;-3274.90;91.10
52787;DHT22;38661;53.152;5.846;2023-03-01T05:41:52;-3274.90;91.20
52787;DHT22;38661;53.152;5.846;2023-03-01T05:44:19;-3274.80;91.10
52787;DHT22;38661;53.152;5.846;2023-03-01T05:46:44;-3274.80;91.10
52787;DHT22;38661;53.152;5.846;2023-03-01T05:49:11;-3274.80;91.00
52787;DHT22;38661;53.152;5.846;2023-03-01T05:51:39;-3274.80;91.00
52787;DHT22;38661;53.152;5.846;2023-03-01T05:54:05;-3274.80;91.10
52787;DHT22;38661;53.152;5.846;2023-03-01T05:56:34;-3274.80;91.00
52787;DHT22;38661;53.152;5.846;2023-03-01T05:59:01;-3274.80;90.90
52787;DHT22;38661;53.152;5.846;2023-03-01T06:01:27;-3274.80;90.80
52787;DHT22;38661;53.152;5.846;2023-03-01T06:03:53;-3274.80;90.80
52787;DHT22;38661;53.152;5.846;2023-03-01T06:06:18;-3274.80;90.80
52787;DHT22;38661;53.152;5.846;2023-03-01T06:08:44;-3274.80;90.80
52787;DHT22;38661;53.152;5.846;2023-03-01T06:11:10;-3274.80;90.80
52787;DHT22;38661;53.152;5.846;2023-03-01T06:13:35;-3274.80;90.80
52787;DHT22;38661;53.152;5.846;2023-03-01T06:16:05;-3274.80;90.60
52787;DHT22;38661;53.152;5.846;2023-03-01T06:18:31;-3274.70;90.60
52787;DHT22;38661;53.152;5.846;2023-03-01T06:20:57;-3274.70;90.50
52787;DHT22;38661;53.152;5.846;2023-03-01T06:23:23;-3274.70;90.30
52787;DHT22;38661;53.152;5.846;2023-03-01T06:25:49;-3274.70;90.40
52787;DHT22;38661;53.152;5.846;2023-03-01T06:28:15;-3274.70;90.50
52787;DHT22;38661;53.152;5.846;2023-03-01T06:30:41;-3274.70;90.40
52787;DHT22;38661;53.152;5.846;2023-03-01T06:33:07;-3274.70;90.50
52787;DHT22;38661;53.152;5.846;2023-03-01T06:35:33;-3274.70;90.60
52787;DHT22;38661;53.152;5.846;2023-03-01T06:38:01;-3274.80;90.60
52787;DHT22;38661;53.152;5.846;2023-03-01T06:40:27;-3274.80;90.70
52787;DHT22;38661;53.152;5.846;2023-03-01T06:42:53;-3274.80;90.70
52787;DHT22;38661;53.152;5.846;2023-03-01T06:45:19;-3274.80;90.60
52787;DHT22;38661;53.152;5.846;2023-03-01T06:47:45;-3274.80;90.50
52787;DHT22;38661;53.152;5.846;2023-03-01T06:50:12;-3274.80;90.70
52787;DHT22;38661;53.152;5.846;2023-03-01T06:52:38;-3274.70;90.50
52787;DHT22;38661;53.152;5.846;2023-03-01T06:55:05;-3274.70;90.40
52787;DHT22;38661;53.152;5.846;2023-03-01T06:57:31;-3274.70;90.40
52787;DHT22;38661;53.152;5.846;2023-03-01T06:59:56;-3274.60;90.50
52787;DHT22;38661;53.152;5.846;2023-03-01T07:02:22;-3274.70;90.60
52787;DHT22;38661;53.152;5.846;2023-03-01T07:04:52;-3274.60;90.40
52787;DHT22;38661;53.152;5.846;2023-03-01T07:07:18;-3274.70;90.50
52787;DHT22;38661;53.152;5.846;2023-03-01T07:09:44;-3274.70;90.50
52787;DHT22;38661;53.152;5.846;2023-03-01T07:12:10;-3274.70;90.50
52787;DHT22;38661;53.152;5.846;2023-03-01T07:14:36;-3274.70;90.50
52787;DHT22;38661;53.152;5.846;2023-03-01T07:17:02;-3274.70;90.30
52787;DHT22;38661;53.152;5.846;2023-03-01T07:19:27;-3274.70;90.50
52787;DHT22;38661;53.152;5.846;2023-03-01T07:21:53;-3274.60;90.40
52787;DHT22;38661;53.152;5.846;2023-03-01T07:24:20;-3274.70;90.60
52787;DHT22;38661;53.152;5.846;2023-03-01T07:26:50;-3274.60;90.60
52787;DHT22;38661;53.152;5.846;2023-03-01T07:29:16;-3274.70;90.90
52787;DHT22;38661;53.152;5.846;2023-03-01T07:31:42;-3274.60;90.90
52787;DHT22;38661;53.152;5.846;2023-03-01T07:34:07;-3274.70;91.00
52787;DHT22;38661;53.152;5.846;2023-03-01T07:36:33;-3274.70;91.40
52787;DHT22;38661;53.152;5.846;2023-03-01T07:38:59;-3274.80;91.70
52787;DHT22;38661;53.152;5.846;2023-03-01T07:41:27;-3274.90;91.80
52787;DHT22;38661;53.152;5.846;2023-03-01T07:43:53;-3275.00;92.00
52787;DHT22;38661;53.152;5.846;2023-03-01T07:46:19;-3275.00;92.10
52787;DHT22;38661;53.152;5.846;2023-03-01T07:48:44;-3275.10;91.90
52787;DHT22;38661;53.152;5.846;2023-03-01T07:51:10;-3275.10;91.90
52787;DHT22;38661;53.152;5.846;2023-03-01T07:53:36;-3275.20;92.00
52787;DHT22;38661;53.152;5.846;2023-03-01T07:56:10;-3275.30;92.10
52787;DHT22;38661;53.152;5.846;2023-03-01T07:58:39;-3275.40;91.90
52787;DHT22;38661;53.152;5.846;2023-03-01T08:01:07;-3275.50;92.20
52787;DHT22;38661;53.152;5.846;2023-03-01T08:03:34;-3275.60;91.90
52787;DHT22;38661;53.152;5.846;2023-03-01T08:06:01;-3275.70;91.90
52787;DHT22;38661;53.152;5.846;2023-03-01T08:08:27;-3275.80;92.10
52787;DHT22;38661;53.152;5.846;2023-03-01T08:10:52;-3275.90;91.80
52787;DHT22;38661;53.152;5.846;2023-03-01T08:13:21;-3276.00;91.70
52787;DHT22;38661;53.152;5.846;2023-03-01T08:15:51;-3276.00;91.90
52787;DHT22;38661;53.152;5.846;2023-03-01T08:18:18;-3276.10;91.40
52787;DHT22;38661;53.152;5.846;2023-03-01T08:20:44;-3276.20;91.20
52787;DHT22;38661;53.152;5.846;2023-03-01T08:23:10;-3276.30;91.10
52787;DHT22;38661;53.152;5.846;2023-03-01T08:25:36;-3276.30;91.10
52787;DHT22;38661;53.152;5.846;2023-03-01T08:28:02;-3276.40;91.20
52787;DHT22;38661;53.152;5.846;2023-03-01T08:30:28;-3276.40;91.20
52787;DHT22;38661;53.152;5.846;2023-03-01T08:32:54;-3276.50;91.40
52787;DHT22;38661;53.152;5.846;2023-03-01T08:35:20;-3276.60;91.30
52787;DHT22;38661;53.152;5.846;2023-03-01T08:37:47;-3276.70;91.30
52787;DHT22;38661;53.152;5.846;2023-03-01T08:40:13;0.00;91.60
52787;DHT22;38661;53.152;5.846;2023-03-01T08:42:40;0.10;91.70
52787;DHT22;38661;53.152;5.846;2023-03-01T08:45:09;0.20;91.60
52787;DHT22;38661;53.152;5.846;2023-03-01T08:47:34;0.20;91.50
52787;DHT22;38661;53.152;5.846;2023-03-01T08:50:00;0.40;91.60
52787;DHT22;38661;53.152;5.846;2023-03-01T08:52:26;0.50;91.50
52787;DHT22;38661;53.152;5.846;2023-03-01T08:54:53;0.60;91.30
52787;DHT22;38661;53.152;5.846;2023-03-01T08:57:18;0.70;91.40
52787;DHT22;38661;53.152;5.846;2023-03-01T08:59:44;0.90;90.90
52787;DHT22;38661;53.152;5.846;2023-03-01T09:02:14;1.00;90.70
52787;DHT22;38661;53.152;5.846;2023-03-01T09:04:40;1.10;90.40
52787;DHT22;38661;53.152;5.846;2023-03-01T09:07:06;1.10;90.60
52787;DHT22;38661;53.152;5.846;2023-03-01T09:09:32;1.20;90.60
52787;DHT22;38661;53.152;5.846;2023-03-01T09:11:58;1.30;90.50
52787;DHT22;38661;53.152;5.846;2023-03-01T09:14:23;1.40;89.70
52787;DHT22;38661;53.152;5.846;2023-03-01T09:16:49;1.40;89.80
52787;DHT22;38661;53.152;5.846;2023-03-01T09:19:15;1.60;90.20
52787;DHT22;38661;53.152;5.846;2023-03-01T09:21:41;1.60;90.20
52787;DHT22;38661;53.152;5.846;2023-03-01T09:24:18;1.70;90.00
52787;DHT22;38661;53.152;5.846;2023-03-01T09:26:45;1.80;89.70
52787;DHT22;38661;53.152;5.846;2023-03-01T09:29:14;1.80;89.60
52787;DHT22;38661;53.152;5.846;2023-03-01T09:31:41;1.90;89.70
52787;DHT22;38661;53.152;5.846;2023-03-01T09:34:07;2.00;89.70
52787;DHT22;38661;53.152;5.846;2023-03-01T09:36:34;2.10;89.70
52787;DHT22;38661;53.152;5.846;2023-03-01T09:39:00;2.30;89.70
52787;DHT22;38661;53.152;5.846;2023-03-01T09:44:29;2.60;89.90
52787;DHT22;38661;53.152;5.846;2023-03-01T09:46:57;2.70;89.90
52787;DHT22;38661;53.152;5.846;2023-03-01T09:49:26;2.90;90.00
52787;DHT22;38661;53.152;5.846;2023-03-01T09:54:22;3.20;89.50
52787;DHT22;38661;53.152;5.846;2023-03-01T09:56:57;3.40;89.40
52787;DHT22;38661;53.152;5.846;2023-03-01T10:04:49;3.70;88.40
52787;DHT22;38661;53.152;5.846;2023-03-01T10:07:26;3.90;88.20
52787;DHT22;38661;53.152;5.846;2023-03-01T10:09:53;4.10;88.10
52787;DHT22;38661;53.152;5.846;2023-03-01T10:12:31;4.30;87.80
52787;DHT22;38661;53.152;5.846;2023-03-01T10:20:25;4.80;87.30
52787;DHT22;38661;53.152;5.846;2023-03-01T10:22:52;4.90;87.10
52787;DHT22;38661;53.152;5.846;2023-03-01T10:25:36;5.10;86.40
52787;DHT22;38661;53.152;5.846;2023-03-01T10:28:26;5.10;86.60
52787;DHT22;38661;53.152;5.846;2023-03-01T10:30:53;5.40;86.30
52787;DHT22;38661;53.152;5.846;2023-03-01T10:33:26;5.60;86.00
52787;DHT22;38661;53.152;5.846;2023-03-01T10:35:53;5.70;85.70
52787;DHT22;38661;53.152;5.846;2023-03-01T10:38:19;5.80;85.50
52787;DHT22;38661;53.152;5.846;2023-03-01T10:40:57;6.00;85.30
52787;DHT22;38661;53.152;5.846;2023-03-01T10:43:26;6.10;84.90
52787;DHT22;38661;53.152;5.846;2023-03-01T10:45:55;6.30;84.30
52787;DHT22;38661;53.152;5.846;2023-03-01T10:48:25;6.40;83.30
52787;DHT22;38661;53.152;5.846;2023-03-01T10:56:11;6.70;82.00
52787;DHT22;38661;53.152;5.846;2023-03-01T10:59:01;6.90;81.80
52787;DHT22;38661;53.152;5.846;2023-03-01T11:01:37;7.10;81.50
52787;DHT22;38661;53.152;5.846;2023-03-01T11:04:11;7.30;81.10
52787;DHT22;38661;53.152;5.846;2023-03-01T11:06:39;7.50;81.00
52787;DHT22;38661;53.152;5.846;2023-03-01T11:09:23;7.60;80.50
52787;DHT22;38661;53.152;5.846;2023-03-01T11:11:57;7.90;80.50
52787;DHT22;38661;53.152;5.846;2023-03-01T11:14:29;8.00;79.80
52787;DHT22;38661;53.152;5.846;2023-03-01T11:17:17;8.10;80.00
52787;DHT22;38661;53.152;5.846;2023-03-01T11:20:03;8.30;79.10
52787;DHT22;38661;53.152;5.846;2023-03-01T11:22:33;8.40;78.80
52787;DHT22;38661;53.152;5.846;2023-03-01T11:25:00;8.60;78.40
52787;DHT22;38661;53.152;5.846;2023-03-01T11:27:31;8.80;78.50
52787;DHT22;38661;53.152;5.846;2023-03-01T11:32:53;9.10;77.50
52787;DHT22;38661;53.152;5.846;2023-03-01T11:35:26;9.20;76.80
52787;DHT22;38661;53.152;5.846;2023-03-01T11:38:02;9.30;76.30
52787;DHT22;38661;53.152;5.846;2023-03-01T11:43:28;9.50;74.60
52787;DHT22;38661;53.152;5.846;2023-03-01T11:51:41;10.00;72.40
52787;DHT22;38661;53.152;5.846;2023-03-01T11:56:52;10.20;70.50
52787;DHT22;38661;53.152;5.846;2023-03-01T12:01:51;10.50;69.00
52787;DHT22;38661;53.152;5.846;2023-03-01T12:10:47;10.90;67.70
52787;DHT22;38661;53.152;5.846;2023-03-01T12:12:58;11.10;67.60
52787;DHT22;38661;53.152;5.846;2023-03-01T12:16:19;11.20;67.20
52787;DHT22;38661;53.152;5.846;2023-03-01T12:18:47;11.30;66.20
52787;DHT22;38661;53.152;5.846;2023-03-01T12:21:28;11.40;66.40
52787;DHT22;38661;53.152;5.846;2023-03-01T12:24:17;11.50;65.40
52787;DHT22;38661;53.152;5.846;2023-03-01T12:27:08;11.60;65.60
52787;DHT22;38661;53.152;5.846;2023-03-01T12:37:54;12.10;61.40
52787;DHT22;38661;53.152;5.846;2023-03-01T12:40:33;12.10;61.00
52787;DHT22;38661;53.152;5.846;2023-03-01T12:43:21;12.20;60.30
52787;DHT22;38661;53.152;5.846;2023-03-01T12:51:10;12.70;58.70
52787;DHT22;38661;53.152;5.846;2023-03-01T12:53:51;12.90;59.00
52787;DHT22;38661;53.152;5.846;2023-03-01T12:56:30;12.80;53.70
52787;DHT22;38661;53.152;5.846;2023-03-01T13:02:09;12.70;54.10
52787;DHT22;38661;53.152;5.846;2023-03-01T13:05:06;12.60;53.10
52787;DHT22;38661;53.152;5.846;2023-03-01T13:07:52;12.60;54.00
52787;DHT22;38661;53.152;5.846;2023-03-01T13:10:48;12.80;55.70
52787;DHT22;38661;53.152;5.846;2023-03-01T13:13:26;13.10;55.80
52787;DHT22;38661;53.152;5.846;2023-03-01T13:15:52;13.30;55.60
52787;DHT22;38661;53.152;5.846;2023-03-01T13:20:50;13.50;55.30
52787;DHT22;38661;53.152;5.846;2023-03-01T13:28:39;13.70;55.40
52787;DHT22;38661;53.152;5.846;2023-03-01T13:33:50;13.60;53.20
52787;DHT22;38661;53.152;5.846;2023-03-01T13:38:58;13.50;53.90
52787;DHT22;38661;53.152;5.846;2023-03-01T13:52:42;13.40;52.50
52787;DHT22;38661;53.152;5.846;2023-03-01T13:57:49;13.80;54.20
52787;DHT22;38661;53.152;5.846;2023-03-01T14:00:30;13.80;53.80
52787;DHT22;38661;53.152;5.846;2023-03-01T14:03:29;13.90;53.00
52787;DHT22;38661;53.152;5.846;2023-03-01T14:06:08;13.70;51.80
52787;DHT22;38661;53.152;5.846;2023-03-01T14:08:35;13.60;51.90
52787;DHT22;38661;53.152;5.846;2023-03-01T14:11:26;13.50;51.80
52787;DHT22;38661;53.152;5.846;2023-03-01T14:14:25;13.50;52.10
52787;DHT22;38661;53.152;5.846;2023-03-01T14:19:56;13.60;52.90
52787;DHT22;38661;53.152;5.846;2023-03-01T14:22:24;13.70;52.70
52787;DHT22;38661;53.152;5.846;2023-03-01T14:25:18;13.60;52.30
52787;DHT22;38661;53.152;5.846;2023-03-01T14:27:55;13.60;52.00
52787;DHT22;38661;53.152;5.846;2023-03-01T14:30:25;13.70;51.60
52787;DHT22;38661;53.152;5.846;2023-03-01T14:32:56;13.80;51.80
52787;DHT22;38661;53.152;5.846;2023-03-01T14:35:31;13.90;51.90
52787;DHT22;38661;53.152;5.846;2023-03-01T14:37:58;13.90;51.70
52787;DHT22;38661;53.152;5.846;2023-03-01T14:40:27;13.90;51.60
52787;DHT22;38661;53.152;5.846;2023-03-01T14:42:55;13.90;51.10
52787;DHT22;38661;53.152;5.846;2023-03-01T14:45:25;13.90;51.30
52787;DHT22;38661;53.152;5.846;2023-03-01T14:47:52;14.00;51.00
52787;DHT22;38661;53.152;5.846;2023-03-01T14:50:31;14.10;50.60
52787;DHT22;38661;53.152;5.846;2023-03-01T14:53:00;14.20;49.80
52787;DHT22;38661;53.152;5.846;2023-03-01T14:57:53;14.50;50.60
52787;DHT22;38661;53.152;5.846;2023-03-01T15:00:20;14.50;50.20
52787;DHT22;38661;53.152;5.846;2023-03-01T15:02:48;14.70;50.60
52787;DHT22;38661;53.152;5.846;2023-03-01T15:05:15;14.70;50.30
52787;DHT22;38661;53.152;5.846;2023-03-01T15:07:43;14.80;50.30
52787;DHT22;38661;53.152;5.846;2023-03-01T15:10:25;14.80;50.10
52787;DHT22;38661;53.152;5.846;2023-03-01T15:12:51;14.80;49.50
52787;DHT22;38661;53.152;5.846;2023-03-01T15:15:32;14.70;50.30
52787;DHT22;38661;53.152;5.846;2023-03-01T15:18:04;14.70;48.50
52787;DHT22;38661;53.152;5.846;2023-03-01T15:20:31;14.70;49.90
52787;DHT22;38661;53.152;5.846;2023-03-01T15:23:01;14.60;50.20
52787;DHT22;38661;53.152;5.846;2023-03-01T15:25:29;14.70;50.20
52787;DHT22;38661;53.152;5.846;2023-03-01T15:27:56;14.70;50.10
52787;DHT22;38661;53.152;5.846;2023-03-01T15:30:31;14.70;49.40
52787;DHT22;38661;53.152;5.846;2023-03-01T15:33:19;14.70;49.60
52787;DHT22;38661;53.152;5.846;2023-03-01T15:35:48;14.60;48.80
52787;DHT22;38661;53.152;5.846;2023-03-01T15:38:33;14.50;49.50
52787;DHT22;38661;53.152;5.846;2023-03-01T15:41:05;14.40;48.90
52787;DHT22;38661;53.152;5.846;2023-03-01T15:43:46;14.40;49.40
52787;DHT22;38661;53.152;5.846;2023-03-01T15:46:20;14.40;49.50
52787;DHT22;38661;53.152;5.846;2023-03-01T15:48:49;14.30;49.60
52787;DHT22;38661;53.152;5.846;2023-03-01T15:51:22;14.00;49.80
52787;DHT22;38661;53.152;5.846;2023-03-01T15:53:51;14.00;50.50
52787;DHT22;38661;53.152;5.846;2023-03-01T15:56:18;13.80;50.80
52787;DHT22;38661;53.152;5.846;2023-03-01T15:58:44;13.70;51.20
52787;DHT22;38661;53.152;5.846;2023-03-01T16:01:15;13.60;51.60
52787;DHT22;38661;53.152;5.846;2023-03-01T16:03:45;13.50;51.90
52787;DHT22;38661;53.152;5.846;2023-03-01T16:06:11;13.50;52.30
52787;DHT22;38661;53.152;5.846;2023-03-01T16:08:37;13.20;52.60
52787;DHT22;38661;53.152;5.846;2023-03-01T16:11:14;13.10;53.00
52787;DHT22;38661;53.152;5.846;2023-03-01T16:13:40;12.90;53.30
52787;DHT22;38661;53.152;5.846;2023-03-01T16:16:08;12.70;53.80
52787;DHT22;38661;53.152;5.846;2023-03-01T16:18:38;12.60;54.10
52787;DHT22;38661;53.152;5.846;2023-03-01T16:21:04;12.20;55.00
52787;DHT22;38661;53.152;5.846;2023-03-01T16:23:30;11.90;56.20
52787;DHT22;38661;53.152;5.846;2023-03-01T16:25:59;11.60;56.90
52787;DHT22;38661;53.152;5.846;2023-03-01T16:28:25;11.50;57.60
52787;DHT22;38661;53.152;5.846;2023-03-01T16:30:52;11.40;58.20
52787;DHT22;38661;53.152;5.846;2023-03-01T16:33:17;11.20;58.40
52787;DHT22;38661;53.152;5.846;2023-03-01T16:35:43;11.10;58.90
52787;DHT22;38661;53.152;5.846;2023-03-01T16:38:10;10.90;59.40
52787;DHT22;38661;53.152;5.846;2023-03-01T16:40:35;10.70;59.70
52787;DHT22;38661;53.152;5.846;2023-03-01T16:43:01;10.60;60.10
52787;DHT22;38661;53.152;5.846;2023-03-01T16:45:33;10.30;60.80
52787;DHT22;38661;53.152;5.846;2023-03-01T16:47:59;10.00;61.60
52787;DHT22;38661;53.152;5.846;2023-03-01T16:50:25;9.60;62.40
52787;DHT22;38661;53.152;5.846;2023-03-01T16:52:50;9.40;63.00
52787;DHT22;38661;53.152;5.846;2023-03-01T16:55:16;9.10;64.40
52787;DHT22;38661;53.152;5.846;2023-03-01T16:57:42;8.80;65.60
52787;DHT22;38661;53.152;5.846;2023-03-01T17:00:10;8.60;65.90
52787;DHT22;38661;53.152;5.846;2023-03-01T17:02:36;8.30;67.40
52787;DHT22;38661;53.152;5.846;2023-03-01T17:05:03;8.10;68.40
52787;DHT22;38661;53.152;5.846;2023-03-01T17:07:30;8.00;69.90
52787;DHT22;38661;53.152;5.846;2023-03-01T17:09:59;7.80;69.90
52787;DHT22;38661;53.152;5.846;2023-03-01T17:12:25;7.60;70.90
52787;DHT22;38661;53.152;5.846;2023-03-01T17:14:50;7.50;71.50
52787;DHT22;38661;53.152;5.846;2023-03-01T17:17:16;7.30;72.70